createdAt,value
2022-08-17T00:03:05.939Z,7.75
2022-08-17T00:07:17.541Z,7.10
2022-08-17T00:11:36.545Z,6.53
2022-08-17T00:15:49.530Z,7.43
2022-08-17T00:20:01.170Z,6.55
2022-08-17T00:24:13.905Z,6.47
2022-08-17T00:28:25.564Z,7.53
2022-08-17T00:33:15.899Z,6.60
2022-08-17T00:37:11.378Z,7.35
2022-08-17T00:41:26.124Z,7.00
2022-08-17T00:45:37.771Z,7.00
2022-08-17T00:49:49.404Z,7.15
2022-08-17T00:54:20.300Z,6.68
2022-08-17T00:58:36.453Z,7.43
2022-08-17T01:02:48.947Z,8.20
2022-08-17T01:07:03.386Z,7.20
2022-08-17T01:11:15.074Z,6.90
2022-08-17T01:15:27.172Z,7.05
2022-08-17T01:19:41.964Z,6.95
2022-08-17T01:23:53.754Z,7.35
2022-08-17T01:28:06.000Z,7.22
2022-08-17T01:32:19.338Z,6.95
2022-08-17T01:36:30.926Z,6.85
2022-08-17T01:40:57.677Z,7.05
2022-08-17T01:45:17.591Z,6.45
2022-08-17T01:49:29.440Z,7.50
2022-08-17T01:53:43.456Z,5.97
2022-08-17T01:57:55.196Z,6.78
2022-08-17T02:02:07.659Z,6.57
2022-08-17T02:06:27.822Z,6.63
2022-08-17T02:10:39.926Z,6.57
2022-08-17T02:14:58.516Z,6.53
2022-08-17T02:19:16.469Z,7.78
2022-08-17T02:23:32.273Z,8.40
2022-08-17T02:27:44.145Z,9.00
2022-08-17T02:31:58.026Z,9.75
2022-08-17T02:36:11.099Z,8.73
2022-08-17T02:40:35.993Z,9.25
2022-08-17T02:44:48.086Z,9.27
2022-08-17T02:48:59.902Z,10.00
2022-08-17T02:53:11.782Z,9.13
2022-08-17T02:57:24.185Z,9.00
2022-08-17T03:01:35.883Z,8.77
2022-08-17T03:05:49.466Z,9.07
2022-08-17T03:10:01.154Z,9.00
2022-08-17T03:14:12.779Z,8.38
2022-08-17T03:18:26.317Z,8.60
2022-08-17T03:22:47.978Z,8.88
2022-08-17T03:27:05.156Z,8.68
2022-08-17T03:31:18.340Z,8.73
2022-08-17T03:35:33.669Z,8.38
2022-08-17T03:39:45.281Z,9.20
2022-08-17T03:43:57.056Z,8.85
2022-08-17T03:48:28.394Z,7.80
2022-08-17T03:52:58.817Z,8.15
2022-08-17T03:57:11.617Z,8.38
2022-08-17T04:01:23.388Z,8.68
2022-08-17T04:05:35.114Z,8.93
2022-08-17T04:09:46.902Z,8.65
2022-08-17T04:13:58.753Z,8.65
2022-08-17T04:18:11.045Z,8.45
2022-08-17T04:22:32.656Z,9.05
2022-08-17T04:26:50.582Z,8.25
2022-08-17T04:31:06.112Z,8.48
2022-08-17T04:35:31.569Z,8.18
2022-08-17T04:40:04.516Z,8.18
2022-08-17T04:44:36.814Z,7.78
2022-08-17T04:48:50.704Z,7.80
2022-08-17T04:53:02.534Z,7.13
2022-08-17T04:57:14.197Z,7.03
2022-08-17T05:01:28.477Z,7.15
2022-08-17T05:05:49.476Z,6.47
2022-08-17T05:10:01.197Z,8.05
2022-08-17T05:14:13.937Z,7.70
2022-08-17T05:18:26.773Z,7.50
2022-08-17T05:22:49.372Z,7.55
2022-08-17T05:27:06.010Z,7.40
2022-08-17T05:31:18.456Z,7.15
2022-08-17T05:35:33.088Z,7.07
2022-08-17T05:39:44.728Z,6.28
2022-08-17T05:43:56.760Z,7.00
2022-08-17T05:48:10.210Z,6.88
2022-08-17T05:52:40.539Z,6.78
2022-08-17T05:56:58.240Z,6.63
2022-08-17T06:01:33.519Z,6.65
2022-08-17T06:06:03.834Z,6.38
2022-08-17T06:10:24.789Z,7.07
2022-08-17T06:14:39.290Z,7.13
2022-08-17T06:19:00.935Z,7.63
2022-08-17T06:23:18.271Z,7.80
2022-08-17T06:27:45.849Z,7.63
2022-08-17T06:31:57.658Z,8.95
2022-08-17T06:36:24.693Z,8.30
2022-08-17T06:41:18.946Z,9.55
2022-08-17T06:45:35.725Z,9.55
2022-08-17T06:49:55.737Z,9.05
2022-08-17T06:54:15.198Z,9.15
2022-08-17T06:58:31.313Z,8.88
2022-08-17T07:02:55.545Z,10.68
2022-08-17T07:07:28.838Z,10.05
2022-08-17T07:12:00.683Z,9.65
2022-08-17T07:16:19.564Z,10.30
2022-08-17T07:20:31.423Z,10.98
2022-08-17T07:24:53.409Z,11.05
2022-08-17T07:29:05.960Z,10.85
2022-08-17T07:33:30.237Z,12.07
2022-08-17T07:37:54.026Z,12.38
2022-08-17T07:42:05.763Z,12.88
2022-08-17T07:46:41.901Z,12.73
2022-08-17T07:50:53.642Z,12.10
2022-08-17T07:55:30.403Z,12.15
2022-08-17T08:00:03.533Z,11.68
2022-08-17T08:04:59.687Z,12.63
2022-08-17T08:09:32.709Z,13.10
2022-08-17T08:13:45.779Z,13.57
2022-08-17T08:18:00.423Z,12.27
2022-08-17T08:22:22.079Z,12.75
2022-08-17T08:26:43.439Z,13.38
2022-08-17T08:31:06.581Z,13.10
2022-08-17T08:35:37.283Z,13.10
2022-08-17T08:39:58.128Z,12.98
2022-08-17T08:44:18.899Z,12.02
2022-08-17T08:49:11.829Z,12.30
2022-08-17T08:53:58.424Z,11.90
2022-08-17T08:58:32.038Z,11.52
2022-08-17T09:02:55.770Z,11.07
2022-08-17T09:07:29.666Z,11.25
2022-08-17T09:12:08.425Z,12.32
2022-08-17T09:16:29.737Z,12.38
2022-08-17T09:20:57.155Z,11.13
2022-08-17T09:25:13.457Z,11.18
2022-08-17T09:29:29.465Z,11.63
2022-08-17T09:33:45.953Z,11.23
2022-08-17T09:38:06.705Z,10.68
2022-08-17T09:42:35.954Z,10.02
2022-08-17T09:47:03.790Z,8.82
2022-08-17T09:51:22.064Z,9.23
2022-08-17T09:56:15.432Z,9.68
2022-08-17T10:00:35.053Z,9.40
2022-08-17T10:05:08.802Z,8.93
2022-08-17T10:09:41.862Z,9.23
2022-08-17T10:14:38.036Z,8.55
2022-08-17T10:19:13.810Z,9.82
2022-08-17T10:23:47.950Z,9.38
2022-08-17T10:28:06.517Z,9.00
2022-08-17T10:32:27.843Z,8.43
2022-08-17T10:36:54.679Z,8.90
2022-08-17T10:41:15.247Z,8.93
2022-08-17T10:45:47.040Z,9.40
2022-08-17T10:50:37.958Z,9.15
2022-08-17T10:54:58.212Z,9.60
2022-08-17T10:59:36.233Z,8.23
2022-08-17T11:03:55.039Z,9.10
2022-08-17T11:08:36.194Z,9.55
2022-08-17T11:13:01.132Z,10.13
2022-08-17T11:17:45.680Z,10.57
2022-08-17T11:22:34.771Z,9.50
2022-08-17T11:27:12.333Z,10.68
2022-08-17T11:31:41.686Z,10.60
2022-08-17T11:36:25.154Z,9.50
2022-08-17T11:41:15.777Z,9.93
2022-08-17T11:45:49.825Z,10.10
2022-08-17T11:50:48.902Z,10.23
2022-08-17T11:55:17.962Z,10.18
2022-08-17T11:59:36.406Z,10.55
2022-08-17T12:03:57.721Z,10.90
2022-08-17T12:08:23.083Z,10.48
2022-08-17T12:12:35.902Z,9.75
2022-08-17T12:17:01.974Z,10.38
2022-08-17T12:21:22.265Z,10.45
2022-08-17T12:26:09.400Z,11.23
2022-08-17T12:30:22.179Z,10.35
2022-08-17T12:34:39.975Z,10.70
2022-08-17T12:39:12.771Z,10.80
2022-08-17T12:43:31.177Z,11.07
2022-08-17T12:47:43.412Z,11.48
2022-08-17T12:52:12.630Z,12.10
2022-08-17T12:56:24.270Z,10.60
2022-08-17T13:00:41.137Z,10.45
2022-08-17T13:05:01.050Z,11.07
2022-08-17T13:09:19.592Z,10.30
2022-08-17T13:13:37.977Z,10.30
2022-08-17T13:17:59.610Z,11.40
2022-08-17T13:22:12.653Z,11.57
2022-08-17T13:26:35.235Z,11.38
2022-08-17T13:30:47.730Z,12.15
2022-08-17T13:35:12.959Z,11.88
2022-08-17T13:39:27.324Z,12.02
2022-08-17T13:43:49.555Z,12.48
2022-08-17T13:48:19.729Z,12.52
2022-08-17T13:52:37.813Z,13.18
2022-08-17T13:57:07.720Z,12.63
2022-08-17T14:01:32.719Z,12.20
2022-08-17T14:05:46.016Z,13.70
2022-08-17T14:10:01.382Z,12.88
2022-08-17T14:14:14.125Z,13.77
2022-08-17T14:18:34.262Z,14.40
2022-08-17T14:22:58.117Z,13.90
2022-08-17T14:27:09.926Z,12.63
2022-08-17T14:31:22.028Z,13.57
2022-08-17T14:35:34.439Z,14.05
2022-08-17T14:39:46.292Z,13.43
2022-08-17T14:43:57.995Z,13.85
2022-08-17T14:48:10.563Z,15.13
2022-08-17T14:52:22.805Z,13.98
2022-08-17T14:56:37.847Z,14.45
2022-08-17T15:00:51.003Z,13.55
2022-08-17T15:05:05.905Z,13.73
2022-08-17T15:09:17.851Z,12.68
2022-08-17T15:13:30.422Z,13.55
2022-08-17T15:17:55.133Z,14.82
2022-08-17T15:22:16.013Z,14.20
2022-08-17T15:26:28.418Z,13.98
2022-08-17T15:30:43.045Z,14.63
2022-08-17T15:35:00.223Z,15.30
2022-08-17T15:39:11.938Z,14.48
2022-08-17T15:43:28.298Z,15.00
2022-08-17T15:47:40.465Z,13.82
2022-08-17T15:51:52.154Z,13.98
2022-08-17T15:56:05.409Z,14.15
2022-08-17T16:00:17.474Z,14.02
2022-08-17T16:04:30.722Z,12.73
2022-08-17T16:08:46.123Z,13.77
2022-08-17T16:12:58.642Z,13.68
2022-08-17T16:17:39.810Z,13.48
2022-08-17T16:21:42.755Z,14.27
2022-08-17T16:25:54.803Z,14.10
2022-08-17T16:30:07.586Z,15.00
2022-08-17T16:34:20.168Z,13.95
2022-08-17T16:38:31.865Z,12.82
2022-08-17T16:42:46.742Z,14.13
2022-08-17T16:47:00.948Z,14.32
2022-08-17T16:51:12.554Z,13.25
2022-08-17T16:55:24.111Z,13.20
2022-08-17T16:59:41.031Z,12.90
2022-08-17T17:03:59.543Z,11.68
2022-08-17T17:08:25.676Z,11.80
2022-08-17T17:13:02.781Z,12.57
2022-08-17T17:17:32.775Z,12.57
2022-08-17T17:21:56.547Z,12.68
2022-08-17T17:26:20.474Z,13.13
2022-08-17T17:30:55.067Z,12.40
2022-08-17T17:35:17.410Z,12.05
2022-08-17T17:39:48.896Z,12.85
2022-08-17T17:44:12.194Z,13.68
2022-08-17T17:48:24.293Z,13.10
2022-08-17T17:52:53.264Z,12.70
2022-08-17T17:57:21.275Z,12.32
2022-08-17T18:02:03.642Z,11.82
2022-08-17T18:06:45.257Z,12.20
2022-08-17T18:11:06.557Z,12.52
2022-08-17T18:15:37.486Z,11.65
2022-08-17T18:19:49.332Z,11.55
2022-08-17T18:24:03.106Z,12.77
2022-08-17T18:28:39.679Z,12.60
2022-08-17T18:32:51.210Z,12.07
2022-08-17T18:37:07.860Z,11.82
2022-08-17T18:41:25.261Z,13.05
2022-08-17T18:45:50.105Z,17.00
2022-08-17T18:50:25.809Z,17.98
2022-08-17T18:54:37.750Z,17.52
2022-08-17T18:59:06.187Z,18.38
2022-08-17T19:03:20.716Z,17.17
2022-08-17T19:07:52.703Z,17.42
2022-08-17T19:12:10.393Z,17.95
2022-08-17T19:16:44.949Z,16.90
2022-08-17T19:21:05.801Z,17.58
2022-08-17T19:25:23.231Z,17.52
2022-08-17T19:29:38.397Z,17.60
2022-08-17T19:33:50.442Z,18.73
2022-08-17T19:39:17.605Z,17.88
2022-08-17T19:44:32.033Z,20.00
2022-08-17T19:49:32.945Z,19.38
2022-08-17T20:06:14.011Z,20.48
2022-08-17T20:11:09.762Z,22.30
2022-08-17T20:15:39.475Z,22.10
2022-08-17T20:20:06.505Z,22.38
2022-08-17T20:24:46.171Z,22.40
2022-08-17T20:29:20.012Z,22.25
2022-08-17T20:33:49.853Z,24.05
2022-08-17T20:38:08.418Z,22.15
2022-08-17T20:42:20.102Z,21.48
2022-08-17T20:46:37.913Z,22.73
2022-08-17T20:51:18.326Z,23.15
2022-08-17T20:55:52.602Z,22.52
2022-08-17T21:00:35.093Z,23.80
2022-08-17T21:04:53.864Z,23.85
2022-08-17T21:09:32.703Z,24.25
2022-08-17T21:14:12.683Z,24.00
2022-08-17T21:18:32.896Z,24.05
2022-08-17T21:23:11.070Z,21.95
2022-08-17T21:27:48.554Z,24.52
2022-08-17T21:32:02.021Z,25.50
2022-08-17T21:36:14.148Z,24.27
2022-08-17T21:40:29.069Z,23.95
2022-08-17T21:44:49.077Z,24.33
2022-08-17T21:49:13.459Z,25.30
2022-08-17T21:53:33.765Z,25.45
2022-08-17T21:57:52.963Z,24.67
2022-08-17T22:02:21.356Z,23.42
2022-08-17T22:06:39.173Z,21.83
2022-08-17T22:11:00.624Z,20.13
2022-08-17T22:15:17.666Z,18.33
2022-08-17T22:19:29.422Z,19.02
2022-08-17T22:24:03.983Z,17.48
2022-08-17T22:28:39.877Z,16.90
2022-08-17T22:32:51.575Z,17.80
2022-08-17T22:37:27.991Z,15.70
2022-08-17T22:41:41.516Z,15.05
2022-08-17T22:45:56.024Z,13.70
2022-08-17T22:50:23.165Z,12.30
2022-08-17T22:54:53.347Z,12.57
2022-08-17T22:59:20.570Z,11.65
2022-08-17T23:03:32.212Z,11.27
2022-08-17T23:07:46.657Z,13.10
2022-08-17T23:11:58.971Z,12.10
2022-08-17T23:16:10.588Z,12.60
2022-08-17T23:20:22.214Z,11.63
2022-08-17T23:24:42.038Z,12.13
2022-08-17T23:28:54.039Z,11.63
2022-08-17T23:33:11.556Z,12.57
2022-08-17T23:37:23.255Z,12.90
2022-08-17T23:41:38.884Z,13.07
2022-08-17T23:45:50.531Z,13.50
2022-08-17T23:50:05.459Z,12.95
2022-08-17T23:54:24.637Z,13.98
2022-08-17T23:58:38.476Z,13.23
